sensor_id;sensor_type;location;lat;lon;timestamp;temperature;humidity
70550;DHT22;58101;48.658;2.328;2023-04-08T00:01:07;9.10;99.90
70550;DHT22;58101;48.658;2.328;2023-04-08T00:03:33;9.00;99.90
70550;DHT22;58101;48.658;2.328;2023-04-08T00:05:58;9.00;99.90
70550;DHT22;58101;48.658;2.328;2023-04-08T00:08:27;8.90;99.90
70550;DHT22;58101;48.658;2.328;2023-04-08T00:10:52;8.90;99.90
70550;DHT22;58101;48.658;2.328;2023-04-08T00:13:18;8.80;99.90
70550;DHT22;58101;48.658;2.328;2023-04-08T00:15:44;8.80;99.90
70550;DHT22;58101;48.658;2.328;2023-04-08T00:18:10;8.70;99.90
70550;DHT22;58101;48.658;2.328;2023-04-08T00:20:35;8.70;99.90
70550;DHT22;58101;48.658;2.328;2023-04-08T00:23:01;8.70;99.90
70550;DHT22;58101;48.658;2.328;2023-04-08T00:25:27;8.70;99.90
70550;DHT22;58101;48.658;2.328;2023-04-08T00:27:52;8.50;99.90
70550;DHT22;58101;48.658;2.328;2023-04-08T00:30:18;8.60;99.90
70550;DHT22;58101;48.658;2.328;2023-04-08T00:32:44;8.50;99.90
70550;DHT22;58101;48.658;2.328;2023-04-08T00:35:10;8.60;99.90
70550;DHT22;58101;48.658;2.328;2023-04-08T00:37:37;8.50;99.90
70550;DHT22;58101;48.658;2.328;2023-04-08T00:40:03;8.50;99.90
70550;DHT22;58101;48.658;2.328;2023-04-08T00:42:29;8.50;99.90
70550;DHT22;58101;48.658;2.328;2023-04-08T00:44:55;8.50;99.90
70550;DHT22;58101;48.658;2.328;2023-04-08T00:47:21;8.50;99.90
70550;DHT22;58101;48.658;2.328;2023-04-08T00:49:47;8.60;99.90
70550;DHT22;58101;48.658;2.328;2023-04-08T00:52:13;8.60;99.90
70550;DHT22;58101;48.658;2.328;2023-04-08T00:54:40;8.50;99.90
70550;DHT22;58101;48.658;2.328;2023-04-08T00:57:05;8.50;99.90
70550;DHT22;58101;48.658;2.328;2023-04-08T00:59:32;8.50;99.90
70550;DHT22;58101;48.658;2.328;2023-04-08T01:05:46;8.50;99.90
70550;DHT22;58101;48.658;2.328;2023-04-08T01:08:17;8.50;99.90
70550;DHT22;58101;48.658;2.328;2023-04-08T01:10:44;8.50;99.90
70550;DHT22;58101;48.658;2.328;2023-04-08T01:13:15;8.40;99.90
70550;DHT22;58101;48.658;2.328;2023-04-08T01:15:43;8.40;99.90
70550;DHT22;58101;48.658;2.328;2023-04-08T01:18:11;8.40;99.90
70550;DHT22;58101;48.658;2.328;2023-04-08T01:20:39;8.30;99.90
70550;DHT22;58101;48.658;2.328;2023-04-08T01:25:53;8.30;99.90
70550;DHT22;58101;48.658;2.328;2023-04-08T01:28:20;8.30;99.90
70550;DHT22;58101;48.658;2.328;2023-04-08T01:30:48;8.40;99.90
70550;DHT22;58101;48.658;2.328;2023-04-08T01:33:16;8.20;99.90
70550;DHT22;58101;48.658;2.328;2023-04-08T01:35:43;8.20;99.90
70550;DHT22;58101;48.658;2.328;2023-04-08T01:38:10;8.20;99.90
70550;DHT22;58101;48.658;2.328;2023-04-08T01:40:38;8.20;99.90
70550;DHT22;58101;48.658;2.328;2023-04-08T01:43:07;8.20;99.90
70550;DHT22;58101;48.658;2.328;2023-04-08T01:45:33;8.10;99.90
70550;DHT22;58101;48.658;2.328;2023-04-08T01:47:59;8.10;99.90
70550;DHT22;58101;48.658;2.328;2023-04-08T01:50:26;8.10;99.90
70550;DHT22;58101;48.658;2.328;2023-04-08T01:52:54;8.10;99.90
70550;DHT22;58101;48.658;2.328;2023-04-08T01:55:20;8.00;99.90
70550;DHT22;58101;48.658;2.328;2023-04-08T01:57:51;7.90;99.90
70550;DHT22;58101;48.658;2.328;2023-04-08T02:00:24;7.90;99.90
70550;DHT22;58101;48.658;2.328;2023-04-08T02:02:51;7.80;99.90
70550;DHT22;58101;48.658;2.328;2023-04-08T02:05:17;7.70;99.90
70550;DHT22;58101;48.658;2.328;2023-04-08T02:07:43;7.70;99.90
70550;DHT22;58101;48.658;2.328;2023-04-08T02:10:11;7.60;99.90
70550;DHT22;58101;48.658;2.328;2023-04-08T02:12:36;7.60;99.90
70550;DHT22;58101;48.658;2.328;2023-04-08T02:15:02;7.50;99.90
70550;DHT22;58101;48.658;2.328;2023-04-08T02:17:49;7.50;99.90
70550;DHT22;58101;48.658;2.328;2023-04-08T02:20:24;7.40;99.90
70550;DHT22;58101;48.658;2.328;2023-04-08T02:25:22;7.30;99.90
70550;DHT22;58101;48.658;2.328;2023-04-08T02:27:49;7.30;99.90
70550;DHT22;58101;48.658;2.328;2023-04-08T02:30:16;7.30;99.90
70550;DHT22;58101;48.658;2.328;2023-04-08T02:32:43;7.30;99.90
70550;DHT22;58101;48.658;2.328;2023-04-08T02:35:10;7.30;99.90
70550;DHT22;58101;48.658;2.328;2023-04-08T02:37:36;7.30;99.90
70550;DHT22;58101;48.658;2.328;2023-04-08T02:40:02;7.30;99.90
70550;DHT22;58101;48.658;2.328;2023-04-08T02:42:28;7.30;99.90
70550;DHT22;58101;48.658;2.328;2023-04-08T02:44:53;7.30;99.90
70550;DHT22;58101;48.658;2.328;2023-04-08T02:47:19;7.30;99.90
70550;DHT22;58101;48.658;2.328;2023-04-08T02:49:45;7.30;99.90
70550;DHT22;58101;48.658;2.328;2023-04-08T02:52:10;7.20;99.90
70550;DHT22;58101;48.658;2.328;2023-04-08T02:54:36;7.20;99.90
70550;DHT22;58101;48.658;2.328;2023-04-08T02:57:02;7.30;99.90
70550;DHT22;58101;48.658;2.328;2023-04-08T02:59:27;7.30;99.90
70550;DHT22;58101;48.658;2.328;2023-04-08T03:01:53;7.20;99.90
70550;DHT22;58101;48.658;2.328;2023-04-08T03:04:18;7.20;99.90
70550;DHT22;58101;48.658;2.328;2023-04-08T03:06:44;7.20;99.90
70550;DHT22;58101;48.658;2.328;2023-04-08T03:09:10;7.20;99.90
70550;DHT22;58101;48.658;2.328;2023-04-08T03:11:35;7.10;99.90
70550;DHT22;58101;48.658;2.328;2023-04-08T03:14:01;7.10;99.90
70550;DHT22;58101;48.658;2.328;2023-04-08T03:16:27;7.10;99.90
70550;DHT22;58101;48.658;2.328;2023-04-08T03:18:52;7.10;99.90
70550;DHT22;58101;48.658;2.328;2023-04-08T03:21:18;7.00;99.90
70550;DHT22;58101;48.658;2.328;2023-04-08T03:23:44;7.10;99.90
70550;DHT22;58101;48.658;2.328;2023-04-08T03:26:10;6.90;99.90
70550;DHT22;58101;48.658;2.328;2023-04-08T03:28:36;7.10;99.90
70550;DHT22;58101;48.658;2.328;2023-04-08T03:31:04;7.10;99.90
70550;DHT22;58101;48.658;2.328;2023-04-08T03:33:30;7.00;99.90
70550;DHT22;58101;48.658;2.328;2023-04-08T03:35:55;7.00;99.90
70550;DHT22;58101;48.658;2.328;2023-04-08T03:38:21;7.00;99.90
70550;DHT22;58101;48.658;2.328;2023-04-08T03:40:47;7.00;99.90
70550;DHT22;58101;48.658;2.328;2023-04-08T03:43:13;7.00;99.90
70550;DHT22;58101;48.658;2.328;2023-04-08T03:45:39;6.90;99.90
70550;DHT22;58101;48.658;2.328;2023-04-08T03:48:05;6.90;99.90
70550;DHT22;58101;48.658;2.328;2023-04-08T03:50:31;6.90;99.90
70550;DHT22;58101;48.658;2.328;2023-04-08T03:52:56;6.90;99.90
70550;DHT22;58101;48.658;2.328;2023-04-08T03:55:22;6.90;99.90
70550;DHT22;58101;48.658;2.328;2023-04-08T03:57:47;6.90;99.90
70550;DHT22;58101;48.658;2.328;2023-04-08T04:00:13;6.90;99.90
70550;DHT22;58101;48.658;2.328;2023-04-08T04:02:39;6.90;99.90
70550;DHT22;58101;48.658;2.328;2023-04-08T04:05:05;6.80;99.90
70550;DHT22;58101;48.658;2.328;2023-04-08T04:07:31;6.90;99.90
70550;DHT22;58101;48.658;2.328;2023-04-08T04:09:56;6.90;99.90
70550;DHT22;58101;48.658;2.328;2023-04-08T04:12:23;6.80;99.90
70550;DHT22;58101;48.658;2.328;2023-04-08T04:14:48;6.80;99.90
70550;DHT22;58101;48.658;2.328;2023-04-08T04:17:14;6.80;99.90
70550;DHT22;58101;48.658;2.328;2023-04-08T04:19:39;6.70;99.90
70550;DHT22;58101;48.658;2.328;2023-04-08T04:22:05;6.70;99.90
70550;DHT22;58101;48.658;2.328;2023-04-08T04:24:31;6.70;99.90
70550;DHT22;58101;48.658;2.328;2023-04-08T04:26:56;6.70;99.90
70550;DHT22;58101;48.658;2.328;2023-04-08T04:29:22;6.70;99.90
70550;DHT22;58101;48.658;2.328;2023-04-08T04:31:48;6.70;99.90
70550;DHT22;58101;48.658;2.328;2023-04-08T04:34:13;6.50;99.90
70550;DHT22;58101;48.658;2.328;2023-04-08T04:36:39;6.60;99.90
70550;DHT22;58101;48.658;2.328;2023-04-08T04:39:04;6.60;99.90
70550;DHT22;58101;48.658;2.328;2023-04-08T04:41:30;6.50;99.90
70550;DHT22;58101;48.658;2.328;2023-04-08T04:43:56;6.50;99.90
70550;DHT22;58101;48.658;2.328;2023-04-08T04:46:21;6.50;99.90
70550;DHT22;58101;48.658;2.328;2023-04-08T04:48:47;6.50;99.90
70550;DHT22;58101;48.658;2.328;2023-04-08T04:51:13;6.50;99.90
70550;DHT22;58101;48.658;2.328;2023-04-08T04:53:38;6.60;99.90
70550;DHT22;58101;48.658;2.328;2023-04-08T04:56:04;6.50;99.90
70550;DHT22;58101;48.658;2.328;2023-04-08T04:58:30;6.50;99.90
70550;DHT22;58101;48.658;2.328;2023-04-08T05:00:56;6.50;99.90
70550;DHT22;58101;48.658;2.328;2023-04-08T05:03:22;6.50;99.90
70550;DHT22;58101;48.658;2.328;2023-04-08T05:05:51;6.50;99.90
70550;DHT22;58101;48.658;2.328;2023-04-08T05:08:17;6.50;99.90
70550;DHT22;58101;48.658;2.328;2023-04-08T05:10:43;6.40;99.90
70550;DHT22;58101;48.658;2.328;2023-04-08T05:13:08;6.40;99.90
70550;DHT22;58101;48.658;2.328;2023-04-08T05:15:34;6.40;99.90
70550;DHT22;58101;48.658;2.328;2023-04-08T05:18:00;6.40;99.90
70550;DHT22;58101;48.658;2.328;2023-04-08T05:20:25;6.50;99.90
70550;DHT22;58101;48.658;2.328;2023-04-08T05:22:51;6.40;99.90
70550;DHT22;58101;48.658;2.328;2023-04-08T05:25:19;6.40;99.90
70550;DHT22;58101;48.658;2.328;2023-04-08T05:27:45;6.40;99.90
70550;DHT22;58101;48.658;2.328;2023-04-08T05:30:11;6.30;99.90
70550;DHT22;58101;48.658;2.328;2023-04-08T05:32:37;6.30;99.90
70550;DHT22;58101;48.658;2.328;2023-04-08T05:35:03;6.30;99.90
70550;DHT22;58101;48.658;2.328;2023-04-08T05:37:29;6.30;99.90
70550;DHT22;58101;48.658;2.328;2023-04-08T05:39:54;6.30;99.90
70550;DHT22;58101;48.658;2.328;2023-04-08T05:42:20;6.30;99.90
70550;DHT22;58101;48.658;2.328;2023-04-08T05:44:46;6.30;99.90
70550;DHT22;58101;48.658;2.328;2023-04-08T05:47:11;6.30;99.90
70550;DHT22;58101;48.658;2.328;2023-04-08T05:49:37;6.30;99.90
70550;DHT22;58101;48.658;2.328;2023-04-08T05:52:03;6.30;99.90
70550;DHT22;58101;48.658;2.328;2023-04-08T05:54:29;6.30;99.90
70550;DHT22;58101;48.658;2.328;2023-04-08T05:56:54;6.30;99.90
70550;DHT22;58101;48.658;2.328;2023-04-08T05:59:20;6.40;99.90
70550;DHT22;58101;48.658;2.328;2023-04-08T06:01:46;6.40;99.90
70550;DHT22;58101;48.658;2.328;2023-04-08T06:04:11;6.50;99.90
70550;DHT22;58101;48.658;2.328;2023-04-08T06:06:37;6.50;99.90
70550;DHT22;58101;48.658;2.328;2023-04-08T06:09:04;6.60;99.90
70550;DHT22;58101;48.658;2.328;2023-04-08T06:11:30;6.70;99.90
70550;DHT22;58101;48.658;2.328;2023-04-08T06:13:56;6.80;99.90
70550;DHT22;58101;48.658;2.328;2023-04-08T06:16:21;6.90;99.90
70550;DHT22;58101;48.658;2.328;2023-04-08T06:18:47;7.00;99.90
70550;DHT22;58101;48.658;2.328;2023-04-08T06:21:13;7.10;99.90
70550;DHT22;58101;48.658;2.328;2023-04-08T06:23:38;7.20;99.90
70550;DHT22;58101;48.658;2.328;2023-04-08T06:26:04;7.30;99.90
70550;DHT22;58101;48.658;2.328;2023-04-08T06:28:30;7.40;99.90
70550;DHT22;58101;48.658;2.328;2023-04-08T06:30:57;7.50;99.90
70550;DHT22;58101;48.658;2.328;2023-04-08T06:33:22;7.60;99.90
70550;DHT22;58101;48.658;2.328;2023-04-08T06:35:48;7.70;99.90
70550;DHT22;58101;48.658;2.328;2023-04-08T06:38:14;7.80;99.90
70550;DHT22;58101;48.658;2.328;2023-04-08T06:40:39;8.00;99.90
70550;DHT22;58101;48.658;2.328;2023-04-08T06:43:05;8.00;99.90
70550;DHT22;58101;48.658;2.328;2023-04-08T06:45:34;8.10;99.90
70550;DHT22;58101;48.658;2.328;2023-04-08T06:48:00;8.20;99.90
70550;DHT22;58101;48.658;2.328;2023-04-08T06:50:26;8.30;99.90
70550;DHT22;58101;48.658;2.328;2023-04-08T06:52:51;8.40;99.90
70550;DHT22;58101;48.658;2.328;2023-04-08T06:55:17;8.50;99.90
70550;DHT22;58101;48.658;2.328;2023-04-08T06:57:42;8.70;99.90
70550;DHT22;58101;48.658;2.328;2023-04-08T07:00:08;8.70;99.90
70550;DHT22;58101;48.658;2.328;2023-04-08T07:02:34;8.80;99.90
70550;DHT22;58101;48.658;2.328;2023-04-08T07:05:00;9.00;99.90
70550;DHT22;58101;48.658;2.328;2023-04-08T07:07:26;9.00;99.90
70550;DHT22;58101;48.658;2.328;2023-04-08T07:09:51;9.10;99.90
70550;DHT22;58101;48.658;2.328;2023-04-08T07:12:17;9.20;99.90
70550;DHT22;58101;48.658;2.328;2023-04-08T07:14:43;9.30;99.90
70550;DHT22;58101;48.658;2.328;2023-04-08T07:17:08;9.40;99.90
70550;DHT22;58101;48.658;2.328;2023-04-08T07:19:34;9.60;99.90
70550;DHT22;58101;48.658;2.328;2023-04-08T07:22:00;9.60;99.90
70550;DHT22;58101;48.658;2.328;2023-04-08T07:24:26;9.70;99.90
70550;DHT22;58101;48.658;2.328;2023-04-08T07:26:51;9.80;99.90
70550;DHT22;58101;48.658;2.328;2023-04-08T07:29:17;9.90;99.90
70550;DHT22;58101;48.658;2.328;2023-04-08T07:31:43;10.10;99.90
70550;DHT22;58101;48.658;2.328;2023-04-08T07:34:09;10.20;99.90
70550;DHT22;58101;48.658;2.328;2023-04-08T07:36:34;10.40;99.90
70550;DHT22;58101;48.658;2.328;2023-04-08T07:39:00;10.50;99.90
70550;DHT22;58101;48.658;2.328;2023-04-08T07:41:26;10.60;99.90
70550;DHT22;58101;48.658;2.328;2023-04-08T07:43:52;10.60;99.90
70550;DHT22;58101;48.658;2.328;2023-04-08T07:46:18;10.70;99.90
70550;DHT22;58101;48.658;2.328;2023-04-08T07:48:44;10.80;99.90
70550;DHT22;58101;48.658;2.328;2023-04-08T07:51:10;10.90;98.90
70550;DHT22;58101;48.658;2.328;2023-04-08T07:53:36;11.10;97.90
70550;DHT22;58101;48.658;2.328;2023-04-08T07:56:01;11.20;96.50
70550;DHT22;58101;48.658;2.328;2023-04-08T07:58:29;11.30;95.50
70550;DHT22;58101;48.658;2.328;2023-04-08T08:00:56;11.50;93.70
70550;DHT22;58101;48.658;2.328;2023-04-08T08:03:22;11.50;92.70
70550;DHT22;58101;48.658;2.328;2023-04-08T08:05:48;11.60;91.50
70550;DHT22;58101;48.658;2.328;2023-04-08T08:08:14;11.70;89.50
70550;DHT22;58101;48.658;2.328;2023-04-08T08:10:39;11.90;90.00
70550;DHT22;58101;48.658;2.328;2023-04-08T08:13:06;12.00;88.80
70550;DHT22;58101;48.658;2.328;2023-04-08T08:15:32;12.10;84.30
70550;DHT22;58101;48.658;2.328;2023-04-08T08:17:58;12.20;84.30
70550;DHT22;58101;48.658;2.328;2023-04-08T08:20:23;12.30;84.80
70550;DHT22;58101;48.658;2.328;2023-04-08T08:22:50;12.40;81.20
70550;DHT22;58101;48.658;2.328;2023-04-08T08:25:16;12.40;79.10
70550;DHT22;58101;48.658;2.328;2023-04-08T08:27:42;12.40;79.50
70550;DHT22;58101;48.658;2.328;2023-04-08T08:30:08;12.60;78.90
70550;DHT22;58101;48.658;2.328;2023-04-08T08:32:34;12.80;81.30
70550;DHT22;58101;48.658;2.328;2023-04-08T08:35:01;13.10;78.40
70550;DHT22;58101;48.658;2.328;2023-04-08T08:37:26;13.30;76.10
70550;DHT22;58101;48.658;2.328;2023-04-08T08:39:52;13.60;70.90
70550;DHT22;58101;48.658;2.328;2023-04-08T08:42:22;13.90;68.30
70550;DHT22;58101;48.658;2.328;2023-04-08T08:44:47;14.90;69.80
70550;DHT22;58101;48.658;2.328;2023-04-08T08:47:14;16.30;59.20
70550;DHT22;58101;48.658;2.328;2023-04-08T08:49:40;17.80;55.60
70550;DHT22;58101;48.658;2.328;2023-04-08T08:52:06;19.50;51.50
70550;DHT22;58101;48.658;2.328;2023-04-08T08:54:31;20.80;45.40
70550;DHT22;58101;48.658;2.328;2023-04-08T08:56:57;22.00;42.90
70550;DHT22;58101;48.658;2.328;2023-04-08T08:59:23;22.80;39.70
70550;DHT22;58101;48.658;2.328;2023-04-08T09:01:49;23.10;36.20
70550;DHT22;58101;48.658;2.328;2023-04-08T09:04:15;23.50;35.00
70550;DHT22;58101;48.658;2.328;2023-04-08T09:06:43;23.60;33.30
70550;DHT22;58101;48.658;2.328;2023-04-08T09:09:10;24.10;33.80
70550;DHT22;58101;48.658;2.328;2023-04-08T09:11:37;24.10;32.40
70550;DHT22;58101;48.658;2.328;2023-04-08T09:14:04;24.10;33.30
70550;DHT22;58101;48.658;2.328;2023-04-08T09:16:31;24.40;33.30
70550;DHT22;58101;48.658;2.328;2023-04-08T09:19:08;24.60;31.30
70550;DHT22;58101;48.658;2.328;2023-04-08T09:21:35;24.60;32.00
70550;DHT22;58101;48.658;2.328;2023-04-08T09:24:00;25.20;31.80
70550;DHT22;58101;48.658;2.328;2023-04-08T09:26:26;25.50;30.10
70550;DHT22;58101;48.658;2.328;2023-04-08T09:29:08;25.50;30.10
70550;DHT22;58101;48.658;2.328;2023-04-08T09:31:35;25.80;30.70
70550;DHT22;58101;48.658;2.328;2023-04-08T09:34:12;26.30;30.30
70550;DHT22;58101;48.658;2.328;2023-04-08T09:36:38;26.50;29.50
70550;DHT22;58101;48.658;2.328;2023-04-08T09:39:05;26.90;29.10
70550;DHT22;58101;48.658;2.328;2023-04-08T09:41:33;27.10;29.00
70550;DHT22;58101;48.658;2.328;2023-04-08T09:44:04;27.50;28.60
70550;DHT22;58101;48.658;2.328;2023-04-08T09:54:47;28.30;27.60
70550;DHT22;58101;48.658;2.328;2023-04-08T09:57:39;28.60;27.20
70550;DHT22;58101;48.658;2.328;2023-04-08T10:00:13;28.70;26.60
70550;DHT22;58101;48.658;2.328;2023-04-08T10:05:26;28.70;26.40
70550;DHT22;58101;48.658;2.328;2023-04-08T10:07:53;29.00;26.40
70550;DHT22;58101;48.658;2.328;2023-04-08T10:10:20;29.20;25.80
70550;DHT22;58101;48.658;2.328;2023-04-08T10:12:47;29.30;25.90
70550;DHT22;58101;48.658;2.328;2023-04-08T10:15:30;29.40;26.10
70550;DHT22;58101;48.658;2.328;2023-04-08T10:20:46;29.30;25.90
70550;DHT22;58101;48.658;2.328;2023-04-08T10:23:17;29.50;26.90
70550;DHT22;58101;48.658;2.328;2023-04-08T10:25:44;29.50;25.30
70550;DHT22;58101;48.658;2.328;2023-04-08T10:30:55;29.50;25.20
70550;DHT22;58101;48.658;2.328;2023-04-08T10:33:32;29.70;25.10
70550;DHT22;58101;48.658;2.328;2023-04-08T10:36:07;29.80;25.40
70550;DHT22;58101;48.658;2.328;2023-04-08T10:38:34;29.80;24.80
70550;DHT22;58101;48.658;2.328;2023-04-08T10:41:00;29.90;24.80
70550;DHT22;58101;48.658;2.328;2023-04-08T10:43:31;30.20;24.70
70550;DHT22;58101;48.658;2.328;2023-04-08T10:45:57;30.30;24.40
70550;DHT22;58101;48.658;2.328;2023-04-08T10:48:23;30.20;24.00
70550;DHT22;58101;48.658;2.328;2023-04-08T10:53:35;30.00;24.30
70550;DHT22;58101;48.658;2.328;2023-04-08T10:56:12;29.90;24.30
70550;DHT22;58101;48.658;2.328;2023-04-08T10:58:53;30.00;24.30
70550;DHT22;58101;48.658;2.328;2023-04-08T11:01:22;30.20;24.40
70550;DHT22;58101;48.658;2.328;2023-04-08T11:03:48;30.20;23.80
70550;DHT22;58101;48.658;2.328;2023-04-08T11:06:14;30.30;24.30
70550;DHT22;58101;48.658;2.328;2023-04-08T11:08:40;30.50;23.60
70550;DHT22;58101;48.658;2.328;2023-04-08T11:11:07;30.50;23.70
70550;DHT22;58101;48.658;2.328;2023-04-08T11:13:40;30.30;23.80
70550;DHT22;58101;48.658;2.328;2023-04-08T11:16:07;30.30;23.70
70550;DHT22;58101;48.658;2.328;2023-04-08T11:18:42;30.10;23.50
70550;DHT22;58101;48.658;2.328;2023-04-08T11:21:10;29.90;24.00
70550;DHT22;58101;48.658;2.328;2023-04-08T11:23:36;29.60;23.40
70550;DHT22;58101;48.658;2.328;2023-04-08T11:26:03;29.50;24.10
70550;DHT22;58101;48.658;2.328;2023-04-08T11:28:29;29.40;24.40
70550;DHT22;58101;48.658;2.328;2023-04-08T11:30:55;29.10;23.90
70550;DHT22;58101;48.658;2.328;2023-04-08T11:33:20;28.70;24.10
70550;DHT22;58101;48.658;2.328;2023-04-08T11:35:50;28.30;25.20
70550;DHT22;58101;48.658;2.328;2023-04-08T11:38:16;28.10;25.50
70550;DHT22;58101;48.658;2.328;2023-04-08T11:40:57;28.10;25.70
70550;DHT22;58101;48.658;2.328;2023-04-08T11:43:24;27.50;25.30
70550;DHT22;58101;48.658;2.328;2023-04-08T11:45:50;27.10;26.60
70550;DHT22;58101;48.658;2.328;2023-04-08T11:48:16;26.70;25.70
70550;DHT22;58101;48.658;2.328;2023-04-08T11:50:42;26.00;26.80
70550;DHT22;58101;48.658;2.328;2023-04-08T11:53:24;25.60;27.30
70550;DHT22;58101;48.658;2.328;2023-04-08T11:55:50;25.20;27.80
70550;DHT22;58101;48.658;2.328;2023-04-08T11:58:16;25.00;28.00
70550;DHT22;58101;48.658;2.328;2023-04-08T12:00:42;24.70;28.70
70550;DHT22;58101;48.658;2.328;2023-04-08T12:03:08;24.70;29.00
70550;DHT22;58101;48.658;2.328;2023-04-08T12:05:34;24.70;30.10
70550;DHT22;58101;48.658;2.328;2023-04-08T12:08:00;24.70;28.50
70550;DHT22;58101;48.658;2.328;2023-04-08T12:10:26;24.40;28.90
70550;DHT22;58101;48.658;2.328;2023-04-08T12:12:52;24.10;29.40
70550;DHT22;58101;48.658;2.328;2023-04-08T12:15:18;24.00;29.40
70550;DHT22;58101;48.658;2.328;2023-04-08T12:17:44;23.70;29.30
70550;DHT22;58101;48.658;2.328;2023-04-08T12:20:11;23.60;32.60
70550;DHT22;58101;48.658;2.328;2023-04-08T12:22:37;23.70;31.60
70550;DHT22;58101;48.658;2.328;2023-04-08T12:25:02;23.70;30.10
70550;DHT22;58101;48.658;2.328;2023-04-08T12:27:29;23.60;29.80
70550;DHT22;58101;48.658;2.328;2023-04-08T12:29:58;23.40;29.20
70550;DHT22;58101;48.658;2.328;2023-04-08T12:32:23;23.20;30.10
70550;DHT22;58101;48.658;2.328;2023-04-08T12:34:50;23.00;29.90
70550;DHT22;58101;48.658;2.328;2023-04-08T12:37:16;22.90;32.30
70550;DHT22;58101;48.658;2.328;2023-04-08T12:39:41;22.90;31.30
70550;DHT22;58101;48.658;2.328;2023-04-08T12:42:07;22.70;33.20
70550;DHT22;58101;48.658;2.328;2023-04-08T12:44:33;22.70;33.10
70550;DHT22;58101;48.658;2.328;2023-04-08T12:46:59;22.70;33.00
70550;DHT22;58101;48.658;2.328;2023-04-08T12:49:25;22.60;31.20
70550;DHT22;58101;48.658;2.328;2023-04-08T12:51:51;22.50;32.70
70550;DHT22;58101;48.658;2.328;2023-04-08T12:54:18;22.50;33.30
70550;DHT22;58101;48.658;2.328;2023-04-08T12:56:43;22.20;32.20
70550;DHT22;58101;48.658;2.328;2023-04-08T12:59:10;22.00;33.80
70550;DHT22;58101;48.658;2.328;2023-04-08T13:01:35;22.00;33.00
70550;DHT22;58101;48.658;2.328;2023-04-08T13:04:01;22.10;34.60
70550;DHT22;58101;48.658;2.328;2023-04-08T13:06:27;22.10;32.90
70550;DHT22;58101;48.658;2.328;2023-04-08T13:08:53;22.10;33.90
70550;DHT22;58101;48.658;2.328;2023-04-08T13:11:19;22.10;33.70
70550;DHT22;58101;48.658;2.328;2023-04-08T13:13:45;22.10;32.70
70550;DHT22;58101;48.658;2.328;2023-04-08T13:16:12;21.90;32.90
70550;DHT22;58101;48.658;2.328;2023-04-08T13:18:38;21.80;33.20
70550;DHT22;58101;48.658;2.328;2023-04-08T13:21:05;21.70;33.30
70550;DHT22;58101;48.658;2.328;2023-04-08T13:23:31;21.70;33.20
70550;DHT22;58101;48.658;2.328;2023-04-08T13:25:57;21.60;32.90
70550;DHT22;58101;48.658;2.328;2023-04-08T13:28:22;21.40;34.00
70550;DHT22;58101;48.658;2.328;2023-04-08T13:30:48;21.40;34.40
70550;DHT22;58101;48.658;2.328;2023-04-08T13:33:14;21.30;34.60
70550;DHT22;58101;48.658;2.328;2023-04-08T13:35:40;21.20;32.70
70550;DHT22;58101;48.658;2.328;2023-04-08T13:38:05;20.90;32.50
70550;DHT22;58101;48.658;2.328;2023-04-08T13:40:31;20.70;34.60
70550;DHT22;58101;48.658;2.328;2023-04-08T13:42:57;20.70;35.10
70550;DHT22;58101;48.658;2.328;2023-04-08T13:45:23;20.80;35.20
70550;DHT22;58101;48.658;2.328;2023-04-08T13:47:48;20.70;35.10
70550;DHT22;58101;48.658;2.328;2023-04-08T13:50:14;20.70;34.60
70550;DHT22;58101;48.658;2.328;2023-04-08T13:52:40;20.60;34.30
70550;DHT22;58101;48.658;2.328;2023-04-08T13:55:06;20.60;34.60
70550;DHT22;58101;48.658;2.328;2023-04-08T13:57:31;20.60;34.10
70550;DHT22;58101;48.658;2.328;2023-04-08T13:59:57;20.60;33.80
70550;DHT22;58101;48.658;2.328;2023-04-08T14:02:23;20.70;34.70
70550;DHT22;58101;48.658;2.328;2023-04-08T14:04:48;20.70;35.50
70550;DHT22;58101;48.658;2.328;2023-04-08T14:07:14;20.60;36.00
70550;DHT22;58101;48.658;2.328;2023-04-08T14:09:40;20.60;35.30
70550;DHT22;58101;48.658;2.328;2023-04-08T14:12:06;20.40;34.60
70550;DHT22;58101;48.658;2.328;2023-04-08T14:14:31;20.30;32.50
70550;DHT22;58101;48.658;2.328;2023-04-08T14:16:57;20.20;33.80
70550;DHT22;58101;48.658;2.328;2023-04-08T14:19:23;19.90;32.50
70550;DHT22;58101;48.658;2.328;2023-04-08T14:21:49;19.70;34.10
70550;DHT22;58101;48.658;2.328;2023-04-08T14:24:15;19.50;36.20
70550;DHT22;58101;48.658;2.328;2023-04-08T14:26:40;19.50;36.70
70550;DHT22;58101;48.658;2.328;2023-04-08T14:29:06;19.60;37.60
70550;DHT22;58101;48.658;2.328;2023-04-08T14:31:33;19.60;38.70
70550;DHT22;58101;48.658;2.328;2023-04-08T14:33:59;19.60;36.60
70550;DHT22;58101;48.658;2.328;2023-04-08T14:36:25;19.70;36.30
70550;DHT22;58101;48.658;2.328;2023-04-08T14:38:52;19.70;36.30
70550;DHT22;58101;48.658;2.328;2023-04-08T14:41:18;19.70;35.30
70550;DHT22;58101;48.658;2.328;2023-04-08T14:43:43;19.60;36.80
70550;DHT22;58101;48.658;2.328;2023-04-08T14:46:09;19.50;37.60
70550;DHT22;58101;48.658;2.328;2023-04-08T14:48:35;19.30;37.50
70550;DHT22;58101;48.658;2.328;2023-04-08T14:51:00;19.30;38.00
70550;DHT22;58101;48.658;2.328;2023-04-08T14:53:26;19.30;38.30
70550;DHT22;58101;48.658;2.328;2023-04-08T14:55:52;19.30;36.90
70550;DHT22;58101;48.658;2.328;2023-04-08T14:58:19;19.10;37.20
70550;DHT22;58101;48.658;2.328;2023-04-08T15:00:45;19.00;37.00
70550;DHT22;58101;48.658;2.328;2023-04-08T15:03:15;18.90;37.40
70550;DHT22;58101;48.658;2.328;2023-04-08T15:05:42;18.80;38.00
70550;DHT22;58101;48.658;2.328;2023-04-08T15:08:07;18.70;36.90
70550;DHT22;58101;48.658;2.328;2023-04-08T15:10:33;18.70;36.50
70550;DHT22;58101;48.658;2.328;2023-04-08T15:12:59;18.60;38.30
70550;DHT22;58101;48.658;2.328;2023-04-08T15:15:25;18.60;39.00
70550;DHT22;58101;48.658;2.328;2023-04-08T15:17:52;18.60;38.90
70550;DHT22;58101;48.658;2.328;2023-04-08T15:20:17;18.60;39.30
70550;DHT22;58101;48.658;2.328;2023-04-08T15:22:46;18.60;39.30
70550;DHT22;58101;48.658;2.328;2023-04-08T15:25:12;18.50;39.30
70550;DHT22;58101;48.658;2.328;2023-04-08T15:27:38;18.50;39.30
70550;DHT22;58101;48.658;2.328;2023-04-08T15:30:05;18.50;39.00
70550;DHT22;58101;48.658;2.328;2023-04-08T15:32:31;18.50;38.40
70550;DHT22;58101;48.658;2.328;2023-04-08T15:34:57;18.40;39.70
70550;DHT22;58101;48.658;2.328;2023-04-08T15:37:22;18.30;39.70
70550;DHT22;58101;48.658;2.328;2023-04-08T15:39:49;18.30;38.60
70550;DHT22;58101;48.658;2.328;2023-04-08T15:42:15;18.20;39.20
70550;DHT22;58101;48.658;2.328;2023-04-08T15:44:41;18.20;39.80
70550;DHT22;58101;48.658;2.328;2023-04-08T15:47:06;18.10;38.90
70550;DHT22;58101;48.658;2.328;2023-04-08T15:49:32;18.00;39.70
70550;DHT22;58101;48.658;2.328;2023-04-08T15:51:58;18.00;40.00
70550;DHT22;58101;48.658;2.328;2023-04-08T15:54:24;17.90;38.80
70550;DHT22;58101;48.658;2.328;2023-04-08T15:56:50;17.90;39.60
70550;DHT22;58101;48.658;2.328;2023-04-08T15:59:16;17.80;40.00
70550;DHT22;58101;48.658;2.328;2023-04-08T16:01:41;17.80;41.10